sensor_id;sensor_type;location;lat;lon;timestamp;temperature;humidity
69938;DHT22;57248;47.320;15.998;2023-06-22T00:01:45;19.55;89.22
69938;DHT22;57248;47.320;15.998;2023-06-22T00:04:31;19.44;90.13
69938;DHT22;57248;47.320;15.998;2023-06-22T00:07:04;19.30;90.68
69938;DHT22;57248;47.320;15.998;2023-06-22T00:09:36;19.36;90.14
69938;DHT22;57248;47.320;15.998;2023-06-22T00:12:01;19.36;90.06
69938;DHT22;57248;47.320;15.998;2023-06-22T00:14:34;19.30;90.13
69938;DHT22;57248;47.320;15.998;2023-06-22T00:17:05;19.18;90.66
69938;DHT22;57248;47.320;15.998;2023-06-22T00:19:37;19.25;90.23
69938;DHT22;57248;47.320;15.998;2023-06-22T00:22:11;19.20;90.16
69938;DHT22;57248;47.320;15.998;2023-06-22T00:24:44;19.24;89.97
69938;DHT22;57248;47.320;15.998;2023-06-22T00:27:15;19.17;90.93
69938;DHT22;57248;47.320;15.998;2023-06-22T00:29:47;19.10;91.24
69938;DHT22;57248;47.320;15.998;2023-06-22T00:32:20;19.11;91.12
69938;DHT22;57248;47.320;15.998;2023-06-22T00:34:52;19.04;90.83
69938;DHT22;57248;47.320;15.998;2023-06-22T00:37:23;19.07;90.32
69938;DHT22;57248;47.320;15.998;2023-06-22T00:39:58;19.03;90.53
69938;DHT22;57248;47.320;15.998;2023-06-22T00:42:30;18.97;90.89
69938;DHT22;57248;47.320;15.998;2023-06-22T00:45:03;18.89;90.91
69938;DHT22;57248;47.320;15.998;2023-06-22T00:47:36;18.84;90.68
69938;DHT22;57248;47.320;15.998;2023-06-22T00:50:06;18.80;90.57
69938;DHT22;57248;47.320;15.998;2023-06-22T00:52:39;18.77;90.82
69938;DHT22;57248;47.320;15.998;2023-06-22T00:55:09;18.80;90.56
69938;DHT22;57248;47.320;15.998;2023-06-22T00:57:42;18.72;90.69
69938;DHT22;57248;47.320;15.998;2023-06-22T01:00:17;18.72;90.53
69938;DHT22;57248;47.320;15.998;2023-06-22T01:02:52;18.69;91.20
69938;DHT22;57248;47.320;15.998;2023-06-22T01:05:32;18.62;90.60
69938;DHT22;57248;47.320;15.998;2023-06-22T01:11:18;18.34;91.57
69938;DHT22;57248;47.320;15.998;2023-06-22T01:13:57;18.43;91.32
69938;DHT22;57248;47.320;15.998;2023-06-22T01:16:34;18.38;91.81
69938;DHT22;57248;47.320;15.998;2023-06-22T01:19:43;18.35;91.69
69938;DHT22;57248;47.320;15.998;2023-06-22T01:22:17;18.26;91.73
69938;DHT22;57248;47.320;15.998;2023-06-22T01:25:06;18.26;91.28
69938;DHT22;57248;47.320;15.998;2023-06-22T01:28:10;18.16;92.11
69938;DHT22;57248;47.320;15.998;2023-06-22T01:30:49;18.08;93.18
69938;DHT22;57248;47.320;15.998;2023-06-22T01:33:21;17.95;93.36
69938;DHT22;57248;47.320;15.998;2023-06-22T01:35:46;18.02;92.85
69938;DHT22;57248;47.320;15.998;2023-06-22T01:38:19;18.12;92.36
69938;DHT22;57248;47.320;15.998;2023-06-22T01:40:52;18.11;92.01
69938;DHT22;57248;47.320;15.998;2023-06-22T01:43:28;18.12;92.17
69938;DHT22;57248;47.320;15.998;2023-06-22T01:46:01;18.06;92.01
69938;DHT22;57248;47.320;15.998;2023-06-22T01:48:34;17.97;92.24
69938;DHT22;57248;47.320;15.998;2023-06-22T01:51:06;17.81;93.15
69938;DHT22;57248;47.320;15.998;2023-06-22T01:53:39;17.93;92.63
69938;DHT22;57248;47.320;15.998;2023-06-22T01:56:12;17.94;92.26
69938;DHT22;57248;47.320;15.998;2023-06-22T01:58:47;17.94;91.84
69938;DHT22;57248;47.320;15.998;2023-06-22T02:01:42;17.91;91.83
69938;DHT22;57248;47.320;15.998;2023-06-22T02:04:25;17.77;92.41
69938;DHT22;57248;47.320;15.998;2023-06-22T02:07:09;17.73;92.53
69938;DHT22;57248;47.320;15.998;2023-06-22T02:09:45;17.73;92.01
69938;DHT22;57248;47.320;15.998;2023-06-22T02:12:22;17.69;91.96
69938;DHT22;57248;47.320;15.998;2023-06-22T02:14:55;17.70;92.14
69938;DHT22;57248;47.320;15.998;2023-06-22T02:17:28;17.62;92.90
69938;DHT22;57248;47.320;15.998;2023-06-22T02:20:05;17.56;93.33
69938;DHT22;57248;47.320;15.998;2023-06-22T02:22:41;17.59;93.18
69938;DHT22;57248;47.320;15.998;2023-06-22T02:25:14;17.66;92.65
69938;DHT22;57248;47.320;15.998;2023-06-22T02:27:46;17.60;92.36
69938;DHT22;57248;47.320;15.998;2023-06-22T02:30:18;17.57;92.21
69938;DHT22;57248;47.320;15.998;2023-06-22T02:32:50;17.45;93.24
69938;DHT22;57248;47.320;15.998;2023-06-22T02:35:30;17.50;92.97
69938;DHT22;57248;47.320;15.998;2023-06-22T02:38:07;17.51;92.67
69938;DHT22;57248;47.320;15.998;2023-06-22T02:40:40;17.40;92.53
69938;DHT22;57248;47.320;15.998;2023-06-22T02:43:12;17.43;92.71
69938;DHT22;57248;47.320;15.998;2023-06-22T02:45:45;17.43;92.61
69938;DHT22;57248;47.320;15.998;2023-06-22T02:48:17;17.42;93.02
69938;DHT22;57248;47.320;15.998;2023-06-22T02:50:49;17.42;92.37
69938;DHT22;57248;47.320;15.998;2023-06-22T02:53:21;17.35;92.34
69938;DHT22;57248;47.320;15.998;2023-06-22T02:55:55;17.36;92.44
69938;DHT22;57248;47.320;15.998;2023-06-22T02:58:30;17.37;92.65
69938;DHT22;57248;47.320;15.998;2023-06-22T03:01:08;17.35;92.79
69938;DHT22;57248;47.320;15.998;2023-06-22T03:03:46;17.30;93.44
69938;DHT22;57248;47.320;15.998;2023-06-22T03:06:25;17.27;93.55
69938;DHT22;57248;47.320;15.998;2023-06-22T03:09:04;17.20;93.89
69938;DHT22;57248;47.320;15.998;2023-06-22T03:11:36;17.23;93.98
69938;DHT22;57248;47.320;15.998;2023-06-22T03:14:08;17.30;93.72
69938;DHT22;57248;47.320;15.998;2023-06-22T03:16:40;17.35;93.22
69938;DHT22;57248;47.320;15.998;2023-06-22T03:19:13;17.37;92.50
69938;DHT22;57248;47.320;15.998;2023-06-22T03:21:47;17.42;93.02
69938;DHT22;57248;47.320;15.998;2023-06-22T03:24:19;17.36;92.51
69938;DHT22;57248;47.320;15.998;2023-06-22T03:26:45;17.47;92.68
69938;DHT22;57248;47.320;15.998;2023-06-22T03:29:18;17.53;92.48
69938;DHT22;57248;47.320;15.998;2023-06-22T03:31:50;17.54;92.10
69938;DHT22;57248;47.320;15.998;2023-06-22T03:34:22;17.54;92.63
69938;DHT22;57248;47.320;15.998;2023-06-22T03:36:54;17.57;92.26
69938;DHT22;57248;47.320;15.998;2023-06-22T03:39:27;17.70;91.93
69938;DHT22;57248;47.320;15.998;2023-06-22T03:41:52;17.77;91.34
69938;DHT22;57248;47.320;15.998;2023-06-22T03:44:25;17.69;91.87
69938;DHT22;57248;47.320;15.998;2023-06-22T03:46:57;17.75;92.19
69938;DHT22;57248;47.320;15.998;2023-06-22T03:49:29;17.80;91.41
69938;DHT22;57248;47.320;15.998;2023-06-22T03:52:02;17.93;91.79
69938;DHT22;57248;47.320;15.998;2023-06-22T03:54:31;18.05;91.45
69938;DHT22;57248;47.320;15.998;2023-06-22T03:57:03;18.11;91.47
69938;DHT22;57248;47.320;15.998;2023-06-22T03:59:28;18.15;91.33
69938;DHT22;57248;47.320;15.998;2023-06-22T04:02:01;18.08;91.43
69938;DHT22;57248;47.320;15.998;2023-06-22T04:04:39;17.93;92.28
69938;DHT22;57248;47.320;15.998;2023-06-22T04:07:13;18.01;92.41
69938;DHT22;57248;47.320;15.998;2023-06-22T04:09:45;18.18;92.03
69938;DHT22;57248;47.320;15.998;2023-06-22T04:12:10;18.49;90.95
69938;DHT22;57248;47.320;15.998;2023-06-22T04:14:43;18.66;90.46
69938;DHT22;57248;47.320;15.998;2023-06-22T04:17:15;18.56;91.21
69938;DHT22;57248;47.320;15.998;2023-06-22T04:19:47;18.42;91.89
69938;DHT22;57248;47.320;15.998;2023-06-22T04:22:19;18.74;91.41
69938;DHT22;57248;47.320;15.998;2023-06-22T04:24:44;18.84;91.30
69938;DHT22;57248;47.320;15.998;2023-06-22T04:27:18;19.58;90.23
69938;DHT22;57248;47.320;15.998;2023-06-22T04:29:51;19.48;88.90
69938;DHT22;57248;47.320;15.998;2023-06-22T04:32:17;19.44;88.76
69938;DHT22;57248;47.320;15.998;2023-06-22T04:34:50;19.54;88.58
69938;DHT22;57248;47.320;15.998;2023-06-22T04:37:24;19.75;88.54
69938;DHT22;57248;47.320;15.998;2023-06-22T04:39:56;20.05;87.80
69938;DHT22;57248;47.320;15.998;2023-06-22T04:42:29;20.17;88.00
69938;DHT22;57248;47.320;15.998;2023-06-22T04:45:02;20.37;87.52
69938;DHT22;57248;47.320;15.998;2023-06-22T04:47:35;20.41;87.37
69938;DHT22;57248;47.320;15.998;2023-06-22T04:50:12;20.55;87.47
69938;DHT22;57248;47.320;15.998;2023-06-22T04:52:44;20.71;87.07
69938;DHT22;57248;47.320;15.998;2023-06-22T04:55:17;20.82;86.31
69938;DHT22;57248;47.320;15.998;2023-06-22T04:57:50;21.01;85.91
69938;DHT22;57248;47.320;15.998;2023-06-22T05:00:22;21.15;85.08
69938;DHT22;57248;47.320;15.998;2023-06-22T05:02:55;21.25;85.34
69938;DHT22;57248;47.320;15.998;2023-06-22T05:05:35;21.54;83.82
69938;DHT22;57248;47.320;15.998;2023-06-22T05:08:07;21.70;84.69
69938;DHT22;57248;47.320;15.998;2023-06-22T05:10:39;21.86;83.85
69938;DHT22;57248;47.320;15.998;2023-06-22T05:13:11;22.04;83.48
69938;DHT22;57248;47.320;15.998;2023-06-22T05:15:44;22.07;82.98
69938;DHT22;57248;47.320;15.998;2023-06-22T05:18:19;22.20;82.18
69938;DHT22;57248;47.320;15.998;2023-06-22T05:20:55;22.59;81.99
69938;DHT22;57248;47.320;15.998;2023-06-22T05:23:27;22.88;81.81
69938;DHT22;57248;47.320;15.998;2023-06-22T05:25:59;22.90;81.39
69938;DHT22;57248;47.320;15.998;2023-06-22T05:28:24;23.03;81.68
69938;DHT22;57248;47.320;15.998;2023-06-22T05:30:57;23.19;79.74
69938;DHT22;57248;47.320;15.998;2023-06-22T05:33:29;23.43;79.86
69938;DHT22;57248;47.320;15.998;2023-06-22T05:36:01;23.74;79.37
69938;DHT22;57248;47.320;15.998;2023-06-22T05:38:34;23.88;76.86
69938;DHT22;57248;47.320;15.998;2023-06-22T05:41:06;23.92;76.79
69938;DHT22;57248;47.320;15.998;2023-06-22T05:43:39;23.98;76.24
69938;DHT22;57248;47.320;15.998;2023-06-22T05:46:11;24.26;75.40
69938;DHT22;57248;47.320;15.998;2023-06-22T05:48:44;24.60;75.70
69938;DHT22;57248;47.320;15.998;2023-06-22T05:51:16;24.80;74.99
69938;DHT22;57248;47.320;15.998;2023-06-22T05:53:48;25.07;74.68
69938;DHT22;57248;47.320;15.998;2023-06-22T05:56:22;25.12;73.55
69938;DHT22;57248;47.320;15.998;2023-06-22T05:58:54;25.35;72.64
69938;DHT22;57248;47.320;15.998;2023-06-22T06:01:33;25.55;72.61
69938;DHT22;57248;47.320;15.998;2023-06-22T06:04:06;25.92;71.72
69938;DHT22;57248;47.320;15.998;2023-06-22T06:06:45;26.20;71.42
69938;DHT22;57248;47.320;15.998;2023-06-22T06:09:19;26.51;71.17
69938;DHT22;57248;47.320;15.998;2023-06-22T06:11:51;26.68;70.63
69938;DHT22;57248;47.320;15.998;2023-06-22T06:14:24;26.96;69.20
69938;DHT22;57248;47.320;15.998;2023-06-22T06:16:56;27.00;67.39
69938;DHT22;57248;47.320;15.998;2023-06-22T06:19:29;26.76;67.45
69938;DHT22;57248;47.320;15.998;2023-06-22T06:22:01;26.41;67.12
69938;DHT22;57248;47.320;15.998;2023-06-22T06:24:34;26.56;65.81
69938;DHT22;57248;47.320;15.998;2023-06-22T06:27:06;27.12;65.33
69938;DHT22;57248;47.320;15.998;2023-06-22T06:29:38;27.55;65.07
69938;DHT22;57248;47.320;15.998;2023-06-22T06:32:10;28.09;62.44
69938;DHT22;57248;47.320;15.998;2023-06-22T06:34:42;27.74;61.14
69938;DHT22;57248;47.320;15.998;2023-06-22T06:37:15;28.38;61.77
69938;DHT22;57248;47.320;15.998;2023-06-22T06:39:47;28.45;62.99
69938;DHT22;57248;47.320;15.998;2023-06-22T06:42:20;29.17;60.91
69938;DHT22;57248;47.320;15.998;2023-06-22T06:44:55;29.27;60.07
69938;DHT22;57248;47.320;15.998;2023-06-22T06:47:27;29.62;61.39
69938;DHT22;57248;47.320;15.998;2023-06-22T06:49:59;29.78;60.21
69938;DHT22;57248;47.320;15.998;2023-06-22T06:52:31;29.72;60.56
69938;DHT22;57248;47.320;15.998;2023-06-22T06:55:03;29.80;59.31
69938;DHT22;57248;47.320;15.998;2023-06-22T06:57:41;29.42;57.58
69938;DHT22;57248;47.320;15.998;2023-06-22T07:00:13;29.80;56.44
69938;DHT22;57248;47.320;15.998;2023-06-22T07:02:54;30.39;56.42
69938;DHT22;57248;47.320;15.998;2023-06-22T07:05:26;30.77;56.20
69938;DHT22;57248;47.320;15.998;2023-06-22T07:08:05;30.21;54.29
69938;DHT22;57248;47.320;15.998;2023-06-22T07:10:37;29.83;54.56
69938;DHT22;57248;47.320;15.998;2023-06-22T07:13:09;30.13;53.54
69938;DHT22;57248;47.320;15.998;2023-06-22T07:15:41;30.88;52.96
69938;DHT22;57248;47.320;15.998;2023-06-22T07:18:14;30.67;51.67
69938;DHT22;57248;47.320;15.998;2023-06-22T07:20:46;30.69;53.67
69938;DHT22;57248;47.320;15.998;2023-06-22T07:23:19;30.88;53.99
69938;DHT22;57248;47.320;15.998;2023-06-22T07:25:51;31.05;54.01
69938;DHT22;57248;47.320;15.998;2023-06-22T07:28:23;31.45;52.71
69938;DHT22;57248;47.320;15.998;2023-06-22T07:30:55;31.21;50.96
69938;DHT22;57248;47.320;15.998;2023-06-22T07:33:27;31.67;52.31
69938;DHT22;57248;47.320;15.998;2023-06-22T07:35:59;31.21;51.43
69938;DHT22;57248;47.320;15.998;2023-06-22T07:38:31;31.76;49.95
69938;DHT22;57248;47.320;15.998;2023-06-22T07:41:03;32.17;50.22
69938;DHT22;57248;47.320;15.998;2023-06-22T07:43:37;32.20;49.28
69938;DHT22;57248;47.320;15.998;2023-06-22T07:46:10;31.76;50.53
69938;DHT22;57248;47.320;15.998;2023-06-22T07:48:42;32.20;50.65
69938;DHT22;57248;47.320;15.998;2023-06-22T07:51:15;31.97;50.26
69938;DHT22;57248;47.320;15.998;2023-06-22T07:53:47;32.21;49.51
69938;DHT22;57248;47.320;15.998;2023-06-22T07:56:20;32.35;49.72
69938;DHT22;57248;47.320;15.998;2023-06-22T07:58:53;33.06;49.25
69938;DHT22;57248;47.320;15.998;2023-06-22T08:01:25;34.83;45.16
69938;DHT22;57248;47.320;15.998;2023-06-22T08:04:04;35.84;43.60
69938;DHT22;57248;47.320;15.998;2023-06-22T08:06:37;35.72;43.02
69938;DHT22;57248;47.320;15.998;2023-06-22T08:09:09;38.21;41.85
69938;DHT22;57248;47.320;15.998;2023-06-22T08:11:41;37.58;41.88
69938;DHT22;57248;47.320;15.998;2023-06-22T08:14:13;37.01;41.76
69938;DHT22;57248;47.320;15.998;2023-06-22T08:16:38;38.54;40.46
69938;DHT22;57248;47.320;15.998;2023-06-22T08:19:10;38.48;38.45
69938;DHT22;57248;47.320;15.998;2023-06-22T08:21:42;37.87;40.28
69938;DHT22;57248;47.320;15.998;2023-06-22T08:24:14;34.64;44.91
69938;DHT22;57248;47.320;15.998;2023-06-22T08:26:46;36.56;41.68
69938;DHT22;57248;47.320;15.998;2023-06-22T08:29:18;36.48;42.03
69938;DHT22;57248;47.320;15.998;2023-06-22T08:31:50;38.10;39.35
69938;DHT22;57248;47.320;15.998;2023-06-22T08:34:22;37.87;40.38
69938;DHT22;57248;47.320;15.998;2023-06-22T08:36:56;35.38;43.66
69938;DHT22;57248;47.320;15.998;2023-06-22T08:39:28;40.18;38.62
69938;DHT22;57248;47.320;15.998;2023-06-22T08:42:00;39.57;38.59
69938;DHT22;57248;47.320;15.998;2023-06-22T08:44:33;40.65;37.24
69938;DHT22;57248;47.320;15.998;2023-06-22T08:47:05;40.01;36.95
69938;DHT22;57248;47.320;15.998;2023-06-22T08:49:37;38.23;39.05
69938;DHT22;57248;47.320;15.998;2023-06-22T08:52:09;39.43;37.34
69938;DHT22;57248;47.320;15.998;2023-06-22T08:54:41;39.12;37.60
69938;DHT22;57248;47.320;15.998;2023-06-22T08:57:13;38.64;38.61
69938;DHT22;57248;47.320;15.998;2023-06-22T08:59:46;37.43;40.17
69938;DHT22;57248;47.320;15.998;2023-06-22T09:02:34;38.92;38.58
69938;DHT22;57248;47.320;15.998;2023-06-22T09:05:13;38.64;38.09
69938;DHT22;57248;47.320;15.998;2023-06-22T09:07:46;35.57;42.28
69938;DHT22;57248;47.320;15.998;2023-06-22T09:10:18;38.03;38.31
69938;DHT22;57248;47.320;15.998;2023-06-22T09:12:51;41.20;35.88
69938;DHT22;57248;47.320;15.998;2023-06-22T09:15:23;39.73;36.48
69938;DHT22;57248;47.320;15.998;2023-06-22T09:17:56;38.98;36.75
69938;DHT22;57248;47.320;15.998;2023-06-22T09:20:29;40.97;35.04
69938;DHT22;57248;47.320;15.998;2023-06-22T09:23:01;40.14;35.87
69938;DHT22;57248;47.320;15.998;2023-06-22T09:25:33;38.71;36.69
69938;DHT22;57248;47.320;15.998;2023-06-22T09:28:05;38.31;38.62
69938;DHT22;57248;47.320;15.998;2023-06-22T09:30:37;38.72;37.62
69938;DHT22;57248;47.320;15.998;2023-06-22T09:33:09;40.09;35.87
69938;DHT22;57248;47.320;15.998;2023-06-22T09:35:41;40.63;34.46
69938;DHT22;57248;47.320;15.998;2023-06-22T09:38:13;38.83;37.19
69938;DHT22;57248;47.320;15.998;2023-06-22T09:40:45;41.16;35.52
69938;DHT22;57248;47.320;15.998;2023-06-22T09:43:17;38.70;38.10
69938;DHT22;57248;47.320;15.998;2023-06-22T09:45:49;39.40;36.37
69938;DHT22;57248;47.320;15.998;2023-06-22T09:48:14;40.74;35.58
69938;DHT22;57248;47.320;15.998;2023-06-22T09:50:47;38.37;38.54
69938;DHT22;57248;47.320;15.998;2023-06-22T09:53:19;41.10;34.82
69938;DHT22;57248;47.320;15.998;2023-06-22T09:55:51;43.62;33.25
69938;DHT22;57248;47.320;15.998;2023-06-22T09:58:23;41.96;35.30
69938;DHT22;57248;47.320;15.998;2023-06-22T10:00:55;40.05;37.22
69938;DHT22;57248;47.320;15.998;2023-06-22T10:03:34;41.34;35.92
69938;DHT22;57248;47.320;15.998;2023-06-22T10:06:06;39.51;36.15
69938;DHT22;57248;47.320;15.998;2023-06-22T10:08:38;41.55;34.74
69938;DHT22;57248;47.320;15.998;2023-06-22T10:11:04;41.78;34.73
69938;DHT22;57248;47.320;15.998;2023-06-22T10:13:37;39.13;37.59
69938;DHT22;57248;47.320;15.998;2023-06-22T10:16:09;39.67;35.49
69938;DHT22;57248;47.320;15.998;2023-06-22T10:18:42;40.14;36.03
69938;DHT22;57248;47.320;15.998;2023-06-22T10:21:14;40.42;34.88
69938;DHT22;57248;47.320;15.998;2023-06-22T10:23:47;41.41;35.48
69938;DHT22;57248;47.320;15.998;2023-06-22T10:26:19;40.28;34.28
69938;DHT22;57248;47.320;15.998;2023-06-22T10:28:51;41.23;34.14
69938;DHT22;57248;47.320;15.998;2023-06-22T10:31:23;39.43;36.42
69938;DHT22;57248;47.320;15.998;2023-06-22T10:33:55;39.51;37.23
69938;DHT22;57248;47.320;15.998;2023-06-22T10:36:27;40.92;35.72
69938;DHT22;57248;47.320;15.998;2023-06-22T10:38:59;40.76;36.20
69938;DHT22;57248;47.320;15.998;2023-06-22T10:41:27;40.48;36.66
69938;DHT22;57248;47.320;15.998;2023-06-22T10:44:02;40.05;36.78
69938;DHT22;57248;47.320;15.998;2023-06-22T10:46:34;39.71;36.29
69938;DHT22;57248;47.320;15.998;2023-06-22T10:49:06;40.62;35.70
69938;DHT22;57248;47.320;15.998;2023-06-22T10:51:38;42.44;35.38
69938;DHT22;57248;47.320;15.998;2023-06-22T10:54:10;43.88;33.65
69938;DHT22;57248;47.320;15.998;2023-06-22T10:56:45;39.16;38.69
69938;DHT22;57248;47.320;15.998;2023-06-22T10:59:17;38.91;36.87
69938;DHT22;57248;47.320;15.998;2023-06-22T11:01:49;40.08;36.40
69938;DHT22;57248;47.320;15.998;2023-06-22T11:04:22;41.20;35.68
69938;DHT22;57248;47.320;15.998;2023-06-22T11:07:02;40.38;36.35
69938;DHT22;57248;47.320;15.998;2023-06-22T11:09:34;39.23;37.24
69938;DHT22;57248;47.320;15.998;2023-06-22T11:11:59;42.15;35.04
69938;DHT22;57248;47.320;15.998;2023-06-22T11:14:32;40.41;36.43
69938;DHT22;57248;47.320;15.998;2023-06-22T11:17:07;40.05;36.45
69938;DHT22;57248;47.320;15.998;2023-06-22T11:19:39;41.60;35.44
69938;DHT22;57248;47.320;15.998;2023-06-22T11:22:11;42.25;35.17
69938;DHT22;57248;47.320;15.998;2023-06-22T11:24:44;42.73;34.03
69938;DHT22;57248;47.320;15.998;2023-06-22T11:27:16;40.87;35.63
69938;DHT22;57248;47.320;15.998;2023-06-22T11:29:48;43.46;32.86
69938;DHT22;57248;47.320;15.998;2023-06-22T11:32:21;40.70;37.38
69938;DHT22;57248;47.320;15.998;2023-06-22T11:34:53;41.71;35.77
69938;DHT22;57248;47.320;15.998;2023-06-22T11:37:25;43.89;33.81
69938;DHT22;57248;47.320;15.998;2023-06-22T11:39:58;40.41;35.51
69938;DHT22;57248;47.320;15.998;2023-06-22T11:42:30;40.97;35.75
69938;DHT22;57248;47.320;15.998;2023-06-22T11:45:05;43.62;32.85
69938;DHT22;57248;47.320;15.998;2023-06-22T11:47:38;45.41;30.94
69938;DHT22;57248;47.320;15.998;2023-06-22T11:50:05;45.87;31.81
69938;DHT22;57248;47.320;15.998;2023-06-22T11:52:38;46.25;30.66
69938;DHT22;57248;47.320;15.998;2023-06-22T11:55:04;44.95;31.30
69938;DHT22;57248;47.320;15.998;2023-06-22T11:57:39;46.78;29.71
69938;DHT22;57248;47.320;15.998;2023-06-22T12:00:23;42.60;34.55
69938;DHT22;57248;47.320;15.998;2023-06-22T12:02:56;46.24;29.94
69938;DHT22;57248;47.320;15.998;2023-06-22T12:05:28;46.31;31.13
69938;DHT22;57248;47.320;15.998;2023-06-22T12:08:00;44.16;31.57
69938;DHT22;57248;47.320;15.998;2023-06-22T12:10:33;44.12;32.04
69938;DHT22;57248;47.320;15.998;2023-06-22T12:13:06;45.52;32.58
69938;DHT22;57248;47.320;15.998;2023-06-22T12:15:38;48.32;30.75
69938;DHT22;57248;47.320;15.998;2023-06-22T12:18:10;41.14;35.83
69938;DHT22;57248;47.320;15.998;2023-06-22T12:20:44;40.89;37.05
69938;DHT22;57248;47.320;15.998;2023-06-22T12:23:16;41.61;36.97
69938;DHT22;57248;47.320;15.998;2023-06-22T12:25:49;44.07;32.18
69938;DHT22;57248;47.320;15.998;2023-06-22T12:28:21;43.85;32.99
69938;DHT22;57248;47.320;15.998;2023-06-22T12:30:55;43.65;34.22
69938;DHT22;57248;47.320;15.998;2023-06-22T12:33:27;44.16;32.88
69938;DHT22;57248;47.320;15.998;2023-06-22T12:35:59;42.68;33.87
69938;DHT22;57248;47.320;15.998;2023-06-22T12:38:31;42.08;35.23
69938;DHT22;57248;47.320;15.998;2023-06-22T12:41:04;44.33;31.80
69938;DHT22;57248;47.320;15.998;2023-06-22T12:43:36;44.48;31.50
69938;DHT22;57248;47.320;15.998;2023-06-22T12:46:01;44.23;32.60
69938;DHT22;57248;47.320;15.998;2023-06-22T12:48:33;43.92;32.75
69938;DHT22;57248;47.320;15.998;2023-06-22T12:51:05;47.22;29.32
69938;DHT22;57248;47.320;15.998;2023-06-22T12:53:37;43.51;33.12
69938;DHT22;57248;47.320;15.998;2023-06-22T12:56:09;41.71;35.12
69938;DHT22;57248;47.320;15.998;2023-06-22T12:58:41;44.61;32.20
69938;DHT22;57248;47.320;15.998;2023-06-22T13:01:14;48.29;30.12
69938;DHT22;57248;47.320;15.998;2023-06-22T13:03:54;49.13;29.68
69938;DHT22;57248;47.320;15.998;2023-06-22T13:06:26;45.56;31.50
69938;DHT22;57248;47.320;15.998;2023-06-22T13:08:58;46.94;30.42
69938;DHT22;57248;47.320;15.998;2023-06-22T13:11:30;43.78;33.78
69938;DHT22;57248;47.320;15.998;2023-06-22T13:14:02;42.39;35.42
69938;DHT22;57248;47.320;15.998;2023-06-22T13:16:27;42.70;34.97
69938;DHT22;57248;47.320;15.998;2023-06-22T13:18:59;45.04;32.28
69938;DHT22;57248;47.320;15.998;2023-06-22T13:21:31;48.69;30.18
69938;DHT22;57248;47.320;15.998;2023-06-22T13:24:03;42.39;36.81
69938;DHT22;57248;47.320;15.998;2023-06-22T13:26:39;40.24;38.26
69938;DHT22;57248;47.320;15.998;2023-06-22T13:29:11;42.50;35.63
69938;DHT22;57248;47.320;15.998;2023-06-22T13:31:45;41.68;36.16
69938;DHT22;57248;47.320;15.998;2023-06-22T13:34:17;42.19;35.98
69938;DHT22;57248;47.320;15.998;2023-06-22T13:36:49;40.74;37.21
69938;DHT22;57248;47.320;15.998;2023-06-22T13:39:21;43.80;33.26
69938;DHT22;57248;47.320;15.998;2023-06-22T13:41:54;42.98;34.24
69938;DHT22;57248;47.320;15.998;2023-06-22T13:44:26;45.82;32.18
69938;DHT22;57248;47.320;15.998;2023-06-22T13:47:00;41.91;36.35
69938;DHT22;57248;47.320;15.998;2023-06-22T13:49:32;42.13;36.46
69938;DHT22;57248;47.320;15.998;2023-06-22T13:52:04;42.87;35.40
69938;DHT22;57248;47.320;15.998;2023-06-22T13:54:38;45.29;32.83
69938;DHT22;57248;47.320;15.998;2023-06-22T13:57:10;43.18;34.70
69938;DHT22;57248;47.320;15.998;2023-06-22T13:59:42;44.07;33.77
69938;DHT22;57248;47.320;15.998;2023-06-22T14:02:14;43.38;33.98
69938;DHT22;57248;47.320;15.998;2023-06-22T14:05:00;41.31;37.05
69938;DHT22;57248;47.320;15.998;2023-06-22T14:07:32;42.70;35.98
69938;DHT22;57248;47.320;15.998;2023-06-22T14:10:06;41.48;36.25
69938;DHT22;57248;47.320;15.998;2023-06-22T14:12:38;40.04;37.78
69938;DHT22;57248;47.320;15.998;2023-06-22T14:15:11;38.50;40.95
69938;DHT22;57248;47.320;15.998;2023-06-22T14:17:36;40.89;38.63
69938;DHT22;57248;47.320;15.998;2023-06-22T14:20:08;41.99;36.57
69938;DHT22;57248;47.320;15.998;2023-06-22T14:22:40;43.93;34.58
69938;DHT22;57248;47.320;15.998;2023-06-22T14:25:12;43.15;35.85
69938;DHT22;57248;47.320;15.998;2023-06-22T14:27:45;41.11;37.09
69938;DHT22;57248;47.320;15.998;2023-06-22T14:30:11;40.25;38.06
69938;DHT22;57248;47.320;15.998;2023-06-22T14:32:44;40.21;39.06
69938;DHT22;57248;47.320;15.998;2023-06-22T14:35:16;39.27;40.38
69938;DHT22;57248;47.320;15.998;2023-06-22T14:37:48;39.97;39.03
69938;DHT22;57248;47.320;15.998;2023-06-22T14:40:21;41.27;37.85
69938;DHT22;57248;47.320;15.998;2023-06-22T14:42:53;41.26;38.35
69938;DHT22;57248;47.320;15.998;2023-06-22T14:45:25;42.95;36.34
69938;DHT22;57248;47.320;15.998;2023-06-22T14:47:57;41.53;37.51
69938;DHT22;57248;47.320;15.998;2023-06-22T14:50:30;38.16;42.08
69938;DHT22;57248;47.320;15.998;2023-06-22T14:53:02;38.07;43.06
69938;DHT22;57248;47.320;15.998;2023-06-22T14:55:36;38.72;41.61
69938;DHT22;57248;47.320;15.998;2023-06-22T14:58:09;36.57;45.84
69938;DHT22;57248;47.320;15.998;2023-06-22T15:00:35;36.87;44.19
69938;DHT22;57248;47.320;15.998;2023-06-22T15:03:07;36.20;46.35
69938;DHT22;57248;47.320;15.998;2023-06-22T15:05:50;36.44;46.47
69938;DHT22;57248;47.320;15.998;2023-06-22T15:08:22;36.30;47.17
69938;DHT22;57248;47.320;15.998;2023-06-22T15:11:00;37.21;45.31
69938;DHT22;57248;47.320;15.998;2023-06-22T15:13:34;37.80;43.85
69938;DHT22;57248;47.320;15.998;2023-06-22T15:16:06;37.77;43.46
69938;DHT22;57248;47.320;15.998;2023-06-22T15:18:39;39.45;41.38
69938;DHT22;57248;47.320;15.998;2023-06-22T15:21:12;38.23;43.54
69938;DHT22;57248;47.320;15.998;2023-06-22T15:23:46;39.22;41.74
69938;DHT22;57248;47.320;15.998;2023-06-22T15:26:18;40.21;40.21
69938;DHT22;57248;47.320;15.998;2023-06-22T15:28:50;39.46;42.72
69938;DHT22;57248;47.320;15.998;2023-06-22T15:31:22;38.60;41.72
69938;DHT22;57248;47.320;15.998;2023-06-22T15:33:54;41.50;38.18
69938;DHT22;57248;47.320;15.998;2023-06-22T15:36:26;42.09;37.25
69938;DHT22;57248;47.320;15.998;2023-06-22T15:38:58;41.20;38.02
69938;DHT22;57248;47.320;15.998;2023-06-22T15:41:30;38.78;41.34
69938;DHT22;57248;47.320;15.998;2023-06-22T15:44:02;39.03;41.83
69938;DHT22;57248;47.320;15.998;2023-06-22T15:46:34;37.42;43.45
69938;DHT22;57248;47.320;15.998;2023-06-22T15:49:06;37.79;43.92
69938;DHT22;57248;47.320;15.998;2023-06-22T15:51:38;38.50;42.35
69938;DHT22;57248;47.320;15.998;2023-06-22T15:54:11;39.08;42.20